MET'MAP v2.0
soon released !

Expected late october,
this new version will be
more efficient, smarter,
and hosted on a brand new
server x3 powerfull...
...and still free !


Not compatible ?
Try the mobile version !

LOG IN : | Subscribe | Disclaimer | Who is Orbifly ? |
ICAO code :

TAF - LFSX Luxeuil - 20 Nov 2019 13:29 UTC
Data Sources :     NOAA   


- Airport Elevation : 913 ft
- No reported NOTAMs.


LFSX - Luxeuil

Latest METAR recorded : 2019/11/20 12:00 LFSX 201200Z AUTO VRB02KT CAVOK 05/03 Q1013
NO TAF


MET'MAP, your aeronautical weather chart ! - Copyright ORBIFLY December 2007

Programming & Development : Alexandra Zaïnal
Co-Developer : Marc-Olivier Méhu
Technical & hardware support : Manuel Goepfert
Concept & Financing : Baudouin d'Aumeries